Time;durP1;ratioP1;P1;durP2;ratioP2;P2;SDS_P1;SDS_P2;PMS_P1;PMS_P2;Temp;Humidity;BMP_temperature;BMP_pressure;BME280_temperature;BME280_humidity;BME280_pressure;Samples;Min_cycle;Max_cycle;Signal;HPM_P1;HPM_P2
2021/04/25 00:00:39;;;;;;;58.80;31.52;;;;;;;3.98;76.26;98430.79;1789937;80;21159;-70
2021/04/25 00:03:07;;;;;;;56.33;30.52;;;;;;;3.97;75.72;98435.86;1799172;79;21506;-71
2021/04/25 00:05:33;;;;;;;52.20;28.32;;;;;;;3.98;75.71;98436.16;1789953;79;21594;-71
2021/04/25 00:07:59;;;;;;;55.48;29.05;;;;;;;4.00;74.84;98430.03;1796902;79;21514;-71
2021/04/25 00:10:26;;;;;;;53.13;27.10;;;;;;;4.00;76.52;98432.72;1784232;80;21550;-71
2021/04/25 00:12:52;;;;;;;55.60;27.25;;;;;;;3.99;76.71;98431.08;1787731;80;22116;-71
2021/04/25 00:15:21;;;;;;;56.70;29.65;;;;;;;3.99;76.74;98431.61;1784126;80;21535;-71
2021/04/25 00:17:48;;;;;;;46.15;26.80;;;;;;;4.00;77.33;98429.22;1787651;80;21099;-71
2021/04/25 00:20:14;;;;;;;54.27;27.50;;;;;;;3.94;77.56;98432.30;1784055;80;21106;-71
2021/04/25 00:22:40;;;;;;;55.15;29.42;;;;;;;4.02;75.77;98433.85;1787749;80;21016;-71
2021/04/25 00:25:07;;;;;;;59.23;27.73;;;;;;;4.07;75.79;98434.79;1784162;80;22043;-71
2021/04/25 00:27:34;;;;;;;57.50;29.72;;;;;;;4.06;74.65;98431.81;1787645;80;21429;-71
2021/04/25 00:30:00;;;;;;;58.15;30.65;;;;;;;4.03;74.31;98422.08;1784140;80;21538;-72
2021/04/25 00:32:26;;;;;;;65.37;31.50;;;;;;;3.99;74.25;98417.67;1787704;80;21531;-71
2021/04/25 00:34:53;;;;;;;59.65;32.40;;;;;;;4.00;73.57;98419.30;1784144;80;21106;-72
2021/04/25 00:37:19;;;;;;;51.85;28.77;;;;;;;3.98;74.65;98418.72;1787591;80;21308;-71
2021/04/25 00:39:45;;;;;;;57.53;29.42;;;;;;;4.02;74.22;98423.94;1784032;80;21194;-71
2021/04/25 00:42:14;;;;;;;81.47;38.17;;;;;;;4.01;77.56;98420.94;1787745;80;21039;-71
2021/04/25 00:44:43;;;;;;;79.07;38.58;;;;;;;3.89;77.77;98418.22;1784267;80;28522;-71
2021/04/25 00:47:09;;;;;;;87.00;39.70;;;;;;;3.85;78.40;98412.22;1787748;80;21087;-71
2021/04/25 00:49:35;;;;;;;95.07;40.65;;;;;;;3.85;78.08;98417.05;1784069;80;22180;-71
2021/04/25 00:52:01;;;;;;;67.82;32.98;;;;;;;3.89;76.33;98416.06;1787576;80;21040;-71
2021/04/25 00:54:28;;;;;;;66.72;33.75;;;;;;;3.94;76.50;98417.03;1784129;80;21094;-71
2021/04/25 00:56:54;;;;;;;49.27;27.13;;;;;;;3.96;76.19;98418.95;1787676;80;21118;-72
2021/04/25 00:59:20;;;;;;;51.00;28.55;;;;;;;4.03;75.14;98423.42;1784018;80;21079;-71
2021/04/25 01:01:46;;;;;;;51.58;30.10;;;;;;;3.99;75.89;98418.20;1787618;80;21468;-71
2021/04/25 01:04:12;;;;;;;52.38;28.42;;;;;;;3.97;75.47;98415.75;1783923;80;21432;-71
2021/04/25 01:06:38;;;;;;;52.08;27.40;;;;;;;3.95;75.76;98407.94;1787585;80;21106;-71
2021/04/25 01:09:05;;;;;;;45.65;27.42;;;;;;;3.96;75.52;98416.27;1784014;80;21118;-71
2021/04/25 01:11:31;;;;;;;49.20;26.65;;;;;;;3.92;75.34;98411.05;1787677;80;21385;-72
2021/04/25 01:13:57;;;;;;;53.55;26.68;;;;;;;3.88;74.83;98409.07;1784022;80;21262;-71
2021/04/25 01:16:24;;;;;;;52.70;30.35;;;;;;;3.84;75.22;98407.87;1787570;80;21443;-71
2021/04/25 01:18:50;;;;;;;64.77;32.15;;;;;;;3.81;76.79;98413.17;1784039;80;21421;-71
2021/04/25 01:21:16;;;;;;;58.58;29.90;;;;;;;3.81;76.54;98408.34;1787612;80;21523;-72
2021/04/25 01:23:42;;;;;;;48.48;28.73;;;;;;;3.81;76.43;98406.99;1784097;80;21410;-71
2021/04/25 01:26:08;;;;;;;50.38;26.85;;;;;;;3.75;76.99;98411.39;1787578;80;22161;-71
2021/04/25 01:28:35;;;;;;;54.80;26.35;;;;;;;3.73;76.72;98404.62;1783930;80;21051;-71
2021/04/25 01:31:01;;;;;;;45.03;23.10;;;;;;;3.71;76.02;98406.72;1787573;80;21047;-71
2021/04/25 01:33:28;;;;;;;48.68;28.57;;;;;;;3.69;76.16;98412.31;1783999;80;21515;-71
2021/04/25 01:35:54;;;;;;;51.58;24.63;;;;;;;3.64;76.53;98407.61;1787565;80;21227;-71
2021/04/25 01:38:20;;;;;;;46.28;24.47;;;;;;;3.64;76.84;98415.66;1783978;80;21238;-71
2021/04/25 01:40:47;;;;;;;55.20;27.67;;;;;;;3.67;76.78;98403.66;1787617;80;21558;-71
2021/04/25 01:43:13;;;;;;;50.35;28.17;;;;;;;3.67;77.89;98401.83;1784047;80;21579;-72
2021/04/25 01:45:39;;;;;;;52.62;26.50;;;;;;;3.67;77.84;98408.53;1787589;80;21161;-71
2021/04/25 01:48:07;;;;;;;44.80;24.95;;;;;;;3.72;77.19;98402.99;1784084;80;21150;-72
2021/04/25 01:50:33;;;;;;;53.13;28.35;;;;;;;3.66;76.04;98399.34;1787668;80;21197;-71
2021/04/25 01:52:59;;;;;;;47.20;27.50;;;;;;;3.57;76.80;98405.53;1753492;80;21205;-72
2021/04/25 01:55:27;;;;;;;55.75;28.12;;;;;;;3.51;76.84;98402.95;1787591;80;21115;-71
2021/04/25 01:57:54;;;;;;;52.85;27.07;;;;;;;3.47;76.20;98401.76;1784018;80;21070;-71
2021/04/25 02:00:41;;;;;;;54.05;28.23;;;;;;;3.43;76.97;98404.08;1787744;80;21115;-71
2021/04/25 02:03:09;;;;;;;46.25;25.57;;;;;;;3.44;77.61;98407.05;1784061;80;21193;-71
2021/04/25 02:05:36;;;;;;;48.20;26.75;;;;;;;3.42;77.09;98403.78;1787525;80;21126;-71
2021/04/25 02:08:03;;;;;;;47.65;26.15;;;;;;;3.38;76.13;98394.02;1784993;80;21206;-71
2021/04/25 02:10:30;;;;;;;51.37;27.37;;;;;;;3.36;75.96;98397.45;1799169;79;21122;-72
2021/04/25 02:12:56;;;;;;;45.25;25.60;;;;;;;3.37;76.20;98395.59;1789922;80;21129;-71
2021/04/25 02:15:23;;;;;;;44.23;23.70;;;;;;;3.40;76.72;98393.79;1799076;79;21210;-71
2021/04/25 02:17:49;;;;;;;47.80;24.50;;;;;;;3.41;76.43;98390.06;1789707;79;21114;-71
2021/04/25 02:20:17;;;;;;;47.67;25.72;;;;;;;3.37;76.59;98385.69;1799069;79;21201;-71
2021/04/25 02:22:43;;;;;;;48.42;26.02;;;;;;;3.35;75.92;98385.10;1789802;80;21042;-71
2021/04/25 02:25:11;;;;;;;50.85;26.07;;;;;;;3.32;76.18;98386.88;1799050;79;21122;-71
2021/04/25 02:27:37;;;;;;;46.83;25.02;;;;;;;3.23;77.77;98387.39;1789912;79;22052;-71
2021/04/25 02:30:10;;;;;;;52.25;27.17;;;;;;;3.14;77.00;98381.52;1799083;79;21047;-71
2021/04/25 02:32:36;;;;;;;49.48;25.90;;;;;;;3.08;77.20;98376.55;1789826;80;21126;-72
2021/04/25 02:35:06;;;;;;;50.75;26.50;;;;;;;3.06;76.93;98383.16;1799026;79;21416;-71
2021/04/25 02:37:32;;;;;;;47.40;28.38;;;;;;;3.00;76.16;98379.53;1789941;80;21012;-71
2021/04/25 02:39:58;;;;;;;49.95;31.20;;;;;;;2.92;76.57;98383.02;1799103;79;21211;-71
2021/04/25 02:42:24;;;;;;;63.08;32.13;;;;;;;2.86;79.26;98375.34;1789728;79;21022;-71
2021/04/25 02:44:50;;;;;;;71.00;36.85;;;;;;;2.88;78.04;98381.28;1799034;79;21027;-71
2021/04/25 02:47:16;;;;;;;53.63;30.08;;;;;;;2.87;79.26;98377.48;1789886;80;21149;-71
2021/04/25 02:49:42;;;;;;;59.77;29.30;;;;;;;2.82;78.57;98367.47;1799215;79;21027;-71
2021/04/25 02:52:08;;;;;;;51.23;27.25;;;;;;;2.77;77.07;98373.47;1789946;80;21265;-71
2021/04/25 02:54:35;;;;;;;48.50;27.27;;;;;;;2.71;76.83;98368.17;1799170;79;21476;-71
2021/04/25 02:57:01;;;;;;;46.60;26.60;;;;;;;2.65;76.38;98366.37;1789935;80;21053;-71
2021/04/25 02:59:27;;;;;;;46.13;27.20;;;;;;;2.60;76.41;98364.89;1799266;79;21146;-71
2021/04/25 03:01:53;;;;;;;48.55;25.97;;;;;;;2.55;76.86;98367.69;1789968;79;21122;-71
2021/04/25 03:04:19;;;;;;;49.42;26.62;;;;;;;2.54;76.63;98371.92;1799292;79;21262;-72
2021/04/25 03:06:45;;;;;;;52.38;29.95;;;;;;;2.41;76.75;98370.72;1789964;80;21141;-71
2021/04/25 03:09:11;;;;;;;54.40;28.60;;;;;;;2.35;77.25;98374.26;1796236;79;21039;-71
2021/04/25 03:11:37;;;;;;;46.90;27.45;;;;;;;2.33;78.49;98370.47;1784189;80;21496;-71
2021/04/25 03:14:03;;;;;;;47.23;28.52;;;;;;;2.36;77.61;98367.34;1787695;80;21102;-71
2021/04/25 03:16:30;;;;;;;46.42;28.38;;;;;;;2.32;81.06;98361.33;1784201;80;21201;-71
2021/04/25 03:18:56;;;;;;;46.45;26.20;;;;;;;2.27;81.55;98367.32;1787671;80;21134;-71
2021/04/25 03:21:22;;;;;;;50.45;26.70;;;;;;;2.26;80.30;98371.85;1784102;80;21026;-71
2021/04/25 03:23:48;;;;;;;51.35;26.57;;;;;;;2.24;80.34;98360.56;1756959;80;21142;-71
2021/04/25 03:26:14;;;;;;;48.52;25.30;;;;;;;2.20;80.26;98362.53;1784075;80;21118;-71
2021/04/25 03:28:40;;;;;;;46.63;25.70;;;;;;;2.12;79.13;98363.62;1787695;80;21409;-71
2021/04/25 03:31:06;;;;;;;179.55;68.65;;;;;;;2.09;80.28;98359.23;1784001;80;21137;-71
2021/04/25 03:33:33;;;;;;;153.38;67.53;;;;;;;2.00;81.16;98359.20;1787737;80;21027;-71
2021/04/25 03:35:59;;;;;;;120.67;49.42;;;;;;;1.97;79.48;98359.94;1784138;80;21039;-71
2021/04/25 03:38:25;;;;;;;83.97;37.90;;;;;;;1.95;79.59;98353.16;1787690;80;21572;-71
2021/04/25 03:40:54;;;;;;;179.42;73.67;;;;;;;1.97;80.26;98358.61;1784068;80;21204;-71
2021/04/25 03:43:20;;;;;;;;;;;;;;;2.02;81.44;98355.79;1790255;80;21094;-71
2021/04/25 03:45:47;;;;;;;48.83;26.70;;;;;;;2.01;82.48;98355.48;1787686;80;20189;-71
2021/04/25 03:48:13;;;;;;;50.52;27.87;;;;;;;2.00;79.85;98356.53;1784083;80;21163;-71
2021/04/25 03:50:39;;;;;;;47.67;26.10;;;;;;;1.98;79.03;98348.21;1787708;80;21150;-71
2021/04/25 03:53:05;;;;;;;65.97;29.67;;;;;;;2.01;79.42;98354.97;1784080;80;21251;-72
2021/04/25 03:55:31;;;;;;;67.25;31.82;;;;;;;2.02;78.69;98359.28;1787630;80;21055;-71
2021/04/25 03:57:57;;;;;;;47.13;28.17;;;;;;;2.05;78.31;98355.34;1784093;80;21181;-71
2021/04/25 04:00:23;;;;;;;53.58;29.02;;;;;;;1.96;80.53;98356.13;1787692;80;21055;-71
2021/04/25 04:02:50;;;;;;;40.83;26.10;;;;;;;1.95;81.18;98353.16;1784123;80;21082;-71
2021/04/25 04:05:16;;;;;;;42.27;25.88;;;;;;;1.92;81.22;98352.27;1787653;80;21247;-71
2021/04/25 04:07:42;;;;;;;49.83;28.30;;;;;;;1.91;80.01;98355.45;1783956;80;21058;-71
2021/04/25 04:10:10;;;;;;;50.70;27.98;;;;;;;1.89;79.55;98347.36;1787649;80;21115;-71
2021/04/25 04:12:36;;;;;;;43.68;24.77;;;;;;;1.80;81.23;98364.16;1784047;80;21118;-71
2021/04/25 04:15:04;;;;;;;41.20;23.85;;;;;;;1.82;80.00;98358.60;1787638;80;21083;-71
2021/04/25 04:17:30;;;;;;;46.17;25.03;;;;;;;1.81;80.43;98355.63;1784391;80;22027;-71
2021/04/25 04:19:56;;;;;;;41.23;24.20;;;;;;;1.81;80.70;98358.30;1787565;80;21492;-71
2021/04/25 04:22:22;;;;;;;47.38;27.15;;;;;;;1.89;78.97;98361.53;1784124;80;21027;-71
2021/04/25 04:24:49;;;;;;;40.78;23.73;;;;;;;1.93;81.25;98360.06;1787616;80;21119;-72
2021/04/25 04:27:16;;;;;;;47.25;25.20;;;;;;;1.96;81.62;98367.63;1784021;80;21145;-72
2021/04/25 04:29:42;;;;;;;50.45;24.77;;;;;;;2.08;80.24;98358.42;1787601;80;21270;-72
2021/04/25 04:32:08;;;;;;;41.33;23.75;;;;;;;2.14;80.41;98354.07;1784078;80;21094;-71
2021/04/25 04:34:36;;;;;;;51.15;27.48;;;;;;;2.20;80.59;98357.19;1787683;80;21051;-71
2021/04/25 04:37:03;;;;;;;50.25;27.50;;;;;;;2.26;80.36;98363.02;1784124;80;21436;-71
2021/04/25 04:39:29;;;;;;;41.35;24.77;;;;;;;2.33;80.19;98362.97;1787725;80;21095;-71
2021/04/25 04:41:56;;;;;;;42.78;23.62;;;;;;;2.37;79.17;98362.81;1784112;80;22065;-71
2021/04/25 04:44:22;;;;;;;44.42;23.80;;;;;;;2.39;78.50;98368.76;1787529;80;21095;-71
2021/04/25 04:46:48;;;;;;;43.52;23.70;;;;;;;2.43;78.70;98362.77;1783990;80;21094;-71
2021/04/25 04:49:14;;;;;;;46.10;23.22;;;;;;;2.44;78.34;98364.40;1787656;80;21098;-72
2021/04/25 04:51:41;;;;;;;42.03;23.77;;;;;;;2.45;79.50;98362.55;1784092;80;21035;-71
2021/04/25 04:54:08;;;;;;;44.58;25.62;;;;;;;2.55;78.87;98366.88;1787577;80;21993;-71
2021/04/25 04:56:34;;;;;;;41.18;23.50;;;;;;;2.72;78.65;98373.81;1783946;80;21095;-71
2021/04/25 04:59:00;;;;;;;42.70;24.23;;;;;;;2.85;78.51;98375.56;1787550;80;21039;-71
2021/04/25 05:01:26;;;;;;;46.90;23.50;;;;;;;2.92;78.84;98373.64;1784031;80;21153;-71
2021/04/25 05:03:52;;;;;;;48.45;23.67;;;;;;;3.07;78.82;98374.89;1787615;80;21162;-71
2021/04/25 05:06:18;;;;;;;43.70;25.10;;;;;;;3.22;78.81;98375.05;1784045;80;21203;-71
2021/04/25 05:08:44;;;;;;;45.63;25.60;;;;;;;3.40;78.31;98382.55;1785842;80;21158;-72
2021/04/25 05:11:11;;;;;;;50.55;25.27;;;;;;;3.56;78.01;98378.45;1761050;81;21034;-71
2021/04/25 05:13:37;;;;;;;50.83;27.00;;;;;;;3.77;77.24;98377.16;1772810;81;21567;-72
2021/04/25 05:16:04;;;;;;;47.53;27.80;;;;;;;3.78;76.91;98376.11;1761093;81;21411;-71
2021/04/25 05:18:30;;;;;;;48.02;30.70;;;;;;;3.78;76.92;98367.25;1772821;81;22150;-71
2021/04/25 05:20:56;;;;;;;56.90;33.08;;;;;;;3.94;76.89;98371.45;1761003;81;21614;-71
2021/04/25 05:23:22;;;;;;;71.60;41.13;;;;;;;4.13;76.70;98371.38;1772694;81;21171;-72
2021/04/25 05:25:48;;;;;;;66.97;37.70;;;;;;;4.26;75.95;98369.81;1761055;81;21101;-71
2021/04/25 05:28:14;;;;;;;58.87;34.58;;;;;;;4.40;75.79;98367.23;1772777;81;21175;-71
2021/04/25 05:30:40;;;;;;;57.08;32.00;;;;;;;4.56;75.31;98364.91;1760995;81;21205;-71
2021/04/25 05:33:07;;;;;;;49.13;30.23;;;;;;;4.70;74.97;98362.27;1772788;81;21147;-71
2021/04/25 05:35:33;;;;;;;53.75;28.60;;;;;;;4.81;74.88;98359.61;1761078;81;21043;-71
2021/04/25 05:37:59;;;;;;;64.47;30.68;;;;;;;4.99;74.94;98364.03;1772699;81;21155;-71
2021/04/25 05:40:26;;;;;;;47.90;26.02;;;;;;;5.14;74.32;98362.21;1761010;81;21177;-71
2021/04/25 05:42:52;;;;;;;50.58;27.37;;;;;;;5.30;73.40;98362.01;1772692;81;21466;-71
2021/04/25 05:45:21;;;;;;;49.30;26.17;;;;;;;5.36;73.04;98352.98;1760990;81;21117;-71
2021/04/25 05:47:54;;;;;;;45.25;26.77;;;;;;;5.43;72.17;98352.84;1747303;81;21123;-71
2021/04/25 05:50:23;;;;;;;46.05;27.40;;;;;;;5.57;71.94;98353.69;1761023;81;21443;-70
2021/04/25 05:52:49;;;;;;;51.90;28.17;;;;;;;5.54;70.75;98355.48;1772939;81;21072;-70
2021/04/25 05:55:16;;;;;;;50.83;28.07;;;;;;;5.61;70.87;98345.95;1761004;81;21573;-71
2021/04/25 05:57:42;;;;;;;53.65;29.85;;;;;;;5.80;71.35;98345.22;1772627;80;21055;-71
2021/04/25 06:00:12;;;;;;;50.52;27.15;;;;;;;6.04;71.47;98344.09;1761000;81;21097;-70
2021/04/25 06:02:38;;;;;;;49.88;28.32;;;;;;;6.24;70.99;98336.91;1772759;81;21492;-71
2021/04/25 06:05:05;;;;;;;48.75;26.40;;;;;;;6.47;70.78;98338.61;1760984;81;21034;-71
2021/04/25 06:07:31;;;;;;;49.03;28.20;;;;;;;6.56;69.44;98342.52;1772687;80;21236;-70
2021/04/25 06:09:57;;;;;;;45.75;26.05;;;;;;;6.63;68.02;98339.13;1758339;80;21151;-70
2021/04/25 06:12:24;;;;;;;52.05;28.65;;;;;;;6.80;68.44;98343.15;1765604;81;21049;-70
2021/04/25 06:14:50;;;;;;;39.35;24.65;;;;;;;6.89;68.40;98343.55;1765612;81;21086;-70
2021/04/25 06:17:16;;;;;;;63.05;33.33;;;;;;;7.02;67.43;98340.51;1765619;81;21105;-71
2021/04/25 06:19:42;;;;;;;55.70;27.85;;;;;;;7.08;67.22;98344.34;1765748;81;21183;-70
2021/04/25 06:22:09;;;;;;;43.75;24.77;;;;;;;7.16;65.70;98339.59;1765684;81;21137;-70
2021/04/25 06:24:37;;;;;;;44.88;26.85;;;;;;;7.19;66.62;98334.55;1765760;81;21129;-70
2021/04/25 06:27:03;;;;;;;39.60;23.85;;;;;;;7.47;66.68;98334.88;1765797;81;21038;-70
2021/04/25 06:29:30;;;;;;;38.30;21.97;;;;;;;7.80;66.27;98336.59;1737843;81;21050;-70
2021/04/25 06:31:57;;;;;;;46.15;23.27;;;;;;;8.16;65.00;98332.36;1765747;81;21316;-71
2021/04/25 06:34:23;;;;;;;38.42;21.80;;;;;;;8.26;60.59;98334.33;1765721;81;21197;-71
2021/04/25 06:36:49;;;;;;;38.95;22.70;;;;;;;8.44;63.20;98333.97;1765835;81;21554;-70
2021/04/25 06:39:16;;;;;;;37.28;23.32;;;;;;;8.59;61.18;98337.33;1765832;81;21925;-70
2021/04/25 06:41:42;;;;;;;41.90;27.02;;;;;;;8.89;60.34;98331.34;1765763;81;21031;-71
2021/04/25 06:44:08;;;;;;;40.63;25.82;;;;;;;9.30;57.78;98330.98;1765806;81;21246;-70
2021/04/25 06:46:35;;;;;;;41.00;24.30;;;;;;;9.40;54.03;98332.95;1765713;81;21114;-71
2021/04/25 06:49:01;;;;;;;41.40;23.85;;;;;;;9.78;56.71;98332.25;1765730;81;21162;-71
2021/04/25 06:51:27;;;;;;;37.73;23.95;;;;;;;9.97;54.24;98331.20;1737659;81;21090;-70
2021/04/25 06:53:54;;;;;;;36.13;22.27;;;;;;;9.68;54.77;98333.58;1765896;81;21192;-71
2021/04/25 06:56:20;;;;;;;44.03;22.80;;;;;;;9.91;56.15;98320.90;1765802;81;21194;-71
2021/04/25 06:58:46;;;;;;;43.30;22.80;;;;;;;9.71;54.84;98320.32;1765742;81;21208;-71
2021/04/25 07:01:12;;;;;;;35.15;23.40;;;;;;;9.82;54.54;98324.67;1765688;81;21075;-70
2021/04/25 07:03:39;;;;;;;37.45;23.18;;;;;;;9.53;54.26;98332.98;1765870;81;21122;-70
2021/04/25 07:06:05;;;;;;;35.95;20.43;;;;;;;9.68;55.26;98330.34;1765695;81;21038;-71
2021/04/25 07:08:31;;;;;;;34.58;19.82;;;;;;;9.78;53.92;98336.31;1765730;81;21186;-71
2021/04/25 07:10:58;;;;;;;37.28;21.82;;;;;;;9.74;53.78;98337.91;1776327;79;21456;-71
2021/04/25 07:13:24;;;;;;;40.45;22.93;;;;;;;9.74;53.78;98337.91;1779130;80;21158;-71
2021/04/25 07:15:50;;;;;;;36.73;22.98;;;;;;;9.69;53.97;98346.84;1831845;77;21039;-71
2021/04/25 07:18:16;;;;;;;39.35;21.82;;;;;;;9.62;52.79;98344.92;1831895;78;21099;-71
2021/04/25 07:20:42;;;;;;;33.33;21.52;;;;;;;9.67;53.77;98338.19;1831892;78;21133;-70
2021/04/25 07:23:09;;;;;;;37.73;21.87;;;;;;;9.84;53.73;98341.48;1792379;80;21165;-71
2021/04/25 07:25:35;;;;;;;34.18;20.97;;;;;;;9.60;53.53;98341.67;1792383;80;21024;-71
2021/04/25 07:28:01;;;;;;;37.67;19.98;;;;;;;9.60;52.99;98343.02;1792380;80;21154;-71
2021/04/25 07:30:28;;;;;;;32.93;18.85;;;;;;;9.29;53.60;98346.94;1792438;80;21074;-70
2021/04/25 07:32:54;;;;;;;30.25;18.37;;;;;;;9.01;52.96;98343.28;1792393;79;21154;-71
2021/04/25 07:35:20;;;;;;;34.63;19.48;;;;;;;8.94;53.71;98340.80;1792348;80;21079;-71
2021/04/25 07:37:48;;;;;;;29.65;16.82;;;;;;;8.95;53.66;98335.67;1792420;80;21110;-70
2021/04/25 07:40:15;;;;;;;28.40;16.77;;;;;;;9.01;54.11;98331.13;1761369;81;21056;-71
2021/04/25 07:42:41;;;;;;;25.60;16.30;;;;;;;9.02;53.61;98332.20;1772924;80;21401;-71
2021/04/25 07:45:12;;;;;;;28.17;16.70;;;;;;;8.92;52.03;98334.86;1761128;81;22097;-71
2021/04/25 07:47:41;;;;;;;26.65;13.55;;;;;;;8.97;51.83;98333.55;1772712;81;21080;-71
2021/04/25 07:50:08;;;;;;;22.50;13.10;;;;;;;8.97;52.27;98330.00;1760171;81;21109;-71
2021/04/25 07:52:35;;;;;;;21.70;13.03;;;;;;;8.94;52.15;98333.23;1746911;81;21071;-71
2021/04/25 07:55:01;;;;;;;23.65;13.28;;;;;;;8.99;52.18;98329.23;1761213;81;21403;-71
2021/04/25 07:57:27;;;;;;;20.40;12.10;;;;;;;8.92;50.51;98328.64;1772781;81;21198;-71
2021/04/25 07:59:53;;;;;;;23.75;13.53;;;;;;;8.92;49.95;98327.29;1761165;81;21047;-71
2021/04/25 08:02:22;;;;;;;27.00;13.95;;;;;;;9.27;50.29;98330.17;1772849;81;21100;-71
2021/04/25 08:04:47;;;;;;;26.23;12.33;;;;;;;9.56;50.98;98325.14;1761045;81;21149;-71
2021/04/25 08:07:13;;;;;;;28.62;15.50;;;;;;;9.68;47.70;98326.28;1772839;81;21174;-71
2021/04/25 08:09:39;;;;;;;25.05;15.00;;;;;;;10.07;49.49;98326.62;1764179;80;22098;-71
2021/04/25 08:12:07;;;;;;;22.45;11.97;;;;;;;10.34;49.08;98319.66;1787673;80;21524;-71
2021/04/25 08:14:33;;;;;;;18.87;10.48;;;;;;;10.11;46.23;98320.14;1784023;80;21126;-71
2021/04/25 08:16:59;;;;;;;19.87;11.15;;;;;;;10.31;46.48;98319.36;1787699;80;21075;-71
2021/04/25 08:19:25;;;;;;;16.45;10.15;;;;;;;10.47;48.32;98316.12;1784088;80;21126;-71
2021/04/25 08:21:51;;;;;;;20.25;10.90;;;;;;;10.81;49.10;98315.81;1787604;80;21204;-71
2021/04/25 08:24:17;;;;;;;22.35;10.80;;;;;;;11.49;48.86;98308.55;1784011;80;21173;-72
2021/04/25 08:26:43;;;;;;;16.20;9.05;;;;;;;11.97;43.29;98308.87;1787629;80;21027;-72
2021/04/25 08:29:10;;;;;;;18.15;10.65;;;;;;;11.69;42.24;98314.41;1784133;80;21142;-72
2021/04/25 08:31:37;;;;;;;15.53;9.98;;;;;;;12.03;41.02;98309.09;1787640;80;21102;-71
2021/04/25 08:34:03;;;;;;;21.40;12.30;;;;;;;12.77;43.19;98299.79;1784046;80;22112;-72
2021/04/25 08:36:29;;;;;;;17.32;10.85;;;;;;;13.89;42.69;98301.20;1787667;80;21103;-71
2021/04/25 08:38:56;;;;;;;15.40;8.53;;;;;;;15.06;37.55;98293.03;1784092;80;21153;-72
2021/04/25 08:41:22;;;;;;;16.25;8.80;;;;;;;15.14;40.03;98296.42;1787586;80;21051;-72
2021/04/25 08:43:49;;;;;;;13.15;7.00;;;;;;;14.96;38.61;98298.12;1784021;80;21086;-72
2021/04/25 08:46:21;;;;;;;17.02;8.38;;;;;;;14.14;36.07;98302.73;1787584;80;21512;-72
2021/04/25 08:48:48;;;;;;;13.05;7.40;;;;;;;12.53;36.08;98299.73;1754385;80;21098;-70
2021/04/25 08:51:15;;;;;;;15.58;8.73;;;;;;;11.76;36.79;98298.09;1787571;80;21095;-70
2021/04/25 08:53:41;;;;;;;15.30;8.68;;;;;;;11.69;38.28;98296.23;1784126;80;21139;-70
2021/04/25 08:56:07;;;;;;;12.68;7.03;;;;;;;11.02;39.30;98292.16;1787632;80;21118;-70
2021/04/25 08:58:34;;;;;;;14.13;7.42;;;;;;;10.78;39.78;98296.58;1784132;80;21972;-70
2021/04/25 09:01:01;;;;;;;14.23;7.55;;;;;;;10.51;39.35;98294.16;1787532;80;21042;-70
2021/04/25 09:03:27;;;;;;;11.00;6.60;;;;;;;10.20;39.80;98291.98;1784078;80;21098;-70
2021/04/25 09:05:58;;;;;;;11.05;7.10;;;;;;;9.89;41.44;98300.06;1787671;80;21251;-70
2021/04/25 09:08:22;;;;;;;11.87;6.90;;;;;;;9.99;40.79;98299.27;1783880;80;21488;-71
2021/04/25 09:10:52;;;;;;;11.30;6.35;;;;;;;9.92;40.43;98302.80;1780193;80;21401;-71
2021/04/25 09:13:24;;;;;;;12.55;6.78;;;;;;;10.13;41.12;98291.70;1761136;81;21141;-71
2021/04/25 09:15:55;;;;;;;14.87;7.40;;;;;;;9.97;40.29;98294.13;1772735;80;21092;-71
2021/04/25 09:18:32;;;;;;;14.73;6.47;;;;;;;10.39;41.40;98288.48;1761168;81;21089;-70
2021/04/25 09:21:14;;;;;;;9.73;6.28;;;;;;;10.51;41.87;98293.64;1772728;81;21076;-70
2021/04/25 09:23:40;;;;;;;11.33;6.92;;;;;;;10.39;40.98;98299.86;1761154;81;21468;-70
2021/04/25 09:26:08;;;;;;;14.60;8.05;;;;;;;10.06;40.59;98284.92;1772672;81;21130;-69
2021/04/25 09:28:36;;;;;;;15.75;7.30;;;;;;;9.91;41.37;98300.59;1761178;81;21168;-71
2021/04/25 09:31:14;;;;;;;14.78;7.08;;;;;;;9.51;42.09;98294.57;1772710;81;21049;-72
2021/04/25 09:33:55;;;;;;;11.38;7.58;;;;;;;9.49;42.50;98304.85;1760961;81;21101;-71
2021/04/25 09:36:26;;;;;;;15.68;8.75;;;;;;;9.35;43.03;98303.70;1772716;80;22159;-71
2021/04/25 09:38:53;;;;;;;15.63;8.25;;;;;;;9.22;43.44;98303.64;1761139;81;21082;-71
2021/04/25 09:41:27;;;;;;;15.05;8.38;;;;;;;9.28;43.49;98300.70;1772682;81;21513;-71
2021/04/25 09:43:53;;;;;;;15.40;7.45;;;;;;;9.30;43.96;98297.19;1761109;81;21475;-71
2021/04/25 09:46:19;;;;;;;10.30;7.00;;;;;;;9.55;43.36;98294.30;1772703;81;21095;-71
2021/04/25 09:48:46;;;;;;;19.27;9.08;;;;;;;9.91;42.08;98293.83;1761082;81;21554;-71
2021/04/25 09:51:23;;;;;;;12.23;7.78;;;;;;;9.98;42.39;98285.45;1772598;81;21425;-71
2021/04/25 09:53:56;;;;;;;12.82;7.72;;;;;;;10.56;42.07;98280.61;1761203;81;21498;-71
2021/04/25 09:56:37;;;;;;;27.52;14.43;;;;;;;10.56;42.07;98280.61;1772668;80;21044;-71
2021/04/25 09:59:06;;;;;;;14.03;9.98;;;;;;;10.87;40.90;98280.03;1760434;81;21073;-72
2021/04/25 10:01:42;;;;;;;23.38;14.05;;;;;;;11.00;41.06;98279.43;1734002;81;22059;-72
2021/04/25 10:04:38;;;;;;;16.80;9.33;;;;;;;11.21;41.36;98273.41;1772365;81;21513;-71
2021/04/25 10:07:08;;;;;;;77.78;39.67;;;;;;;11.45;40.88;98281.17;1732181;81;45853;-72
2021/04/25 10:09:35;;;;;;;19.62;10.30;;;;;;;11.11;38.56;98278.84;1772668;81;21111;-71
2021/04/25 10:12:02;;;;;;;44.50;24.02;;;;;;;11.06;39.01;98276.98;1756442;80;21043;-71
2021/04/25 10:14:31;;;;;;;36.77;20.23;;;;;;;11.04;39.33;98271.57;1765659;81;22130;-70
2021/04/25 10:16:57;;;;;;;34.33;18.60;;;;;;;10.53;39.63;98275.75;1765666;81;21141;-70
2021/04/25 10:19:24;;;;;;;30.25;16.80;;;;;;;10.58;40.41;98275.19;1765625;81;21089;-71
2021/04/25 10:21:51;;;;;;;83.80;47.67;;;;;;;10.20;39.59;98276.55;1765681;81;21031;-70
2021/04/25 10:27:11;;;;;;;37.95;22.62;;;;;;;10.93;38.67;98264.80;1828783;76;22421;-71
2021/04/25 10:29:55;;;;;;;17.60;8.78;;;;;;;11.35;37.11;98264.11;1785941;80;21019;-71
2021/04/25 10:32:21;;;;;;;14.45;7.55;;;;;;;11.46;36.58;98258.92;1785983;79;21247;-72
2021/04/25 10:34:50;;;;;;;13.93;9.58;;;;;;;11.77;38.67;98259.53;1785908;80;21194;-72
2021/04/25 10:37:16;;;;;;;24.87;14.35;;;;;;;11.80;39.04;98264.45;1785858;79;21111;-72
2021/04/25 10:39:49;;;;;;;24.95;15.08;;;;;;;10.96;37.71;98266.98;1785886;80;20949;-72
2021/04/25 10:42:26;;;;;;;14.85;9.15;;;;;;;10.85;38.79;98262.69;1785861;79;20929;-72
2021/04/25 10:45:04;;;;;;;16.02;8.90;;;;;;;10.66;38.28;98271.11;1785784;80;21193;-71
2021/04/25 10:47:38;;;;;;;13.50;7.83;;;;;;;10.40;39.68;98271.69;1785938;79;21066;-72
2021/04/25 10:50:19;;;;;;;16.52;10.00;;;;;;;10.52;38.56;98265.46;1785875;80;21417;-70
2021/04/25 10:52:47;;;;;;;15.08;10.20;;;;;;;10.51;38.22;98263.00;1785956;79;21440;-71
2021/04/25 10:55:24;;;;;;;13.03;8.25;;;;;;;10.26;38.59;98266.02;1785905;80;21512;-71
2021/04/25 10:58:02;;;;;;;15.85;8.78;;;;;;;10.35;38.95;98263.03;1785810;79;21118;-71
2021/04/25 11:03:16;;;;;;;12.82;8.10;;;;;;;10.47;38.82;98260.03;1785864;80;21079;-71
2021/04/25 11:05:45;;;;;;;12.78;8.78;;;;;;;10.78;38.95;98260.80;1785884;79;21440;-71
2021/04/25 11:08:26;;;;;;;15.18;8.98;;;;;;;10.89;38.69;98262.39;1785874;79;21499;-71
2021/04/25 11:11:09;;;;;;;13.78;7.53;;;;;;;10.71;38.89;98266.50;1785829;79;21193;-71
2021/04/25 11:13:47;;;;;;;18.92;9.78;;;;;;;10.76;38.49;98254.02;1785818;79;21087;-72
2021/04/25 11:16:26;;;;;;;17.37;8.58;;;;;;;10.95;37.75;98265.91;1785900;79;21647;-71
2021/04/25 11:19:14;;;;;;;16.30;9.45;;;;;;;10.60;37.99;98268.16;1785871;80;21075;-70
2021/04/25 11:21:54;;;;;;;13.83;8.70;;;;;;;10.69;38.77;98260.55;1786065;79;21475;-72
2021/04/25 11:24:27;;;;;;;11.05;7.40;;;;;;;10.45;38.85;98267.09;1785961;80;21193;-70
2021/04/25 11:26:56;;;;;;;12.18;7.75;;;;;;;10.12;37.97;98263.55;1785644;78;21484;-70
2021/04/25 11:29:40;;;;;;;11.93;6.17;;;;;;;10.45;38.30;98263.56;1785896;80;21083;-71
2021/04/25 11:32:06;;;;;;;10.32;7.03;;;;;;;10.72;37.05;98264.06;1785766;79;21161;-72